createdAt,value
2018-06-21T00:01:30.799Z,2.60
2018-06-21T00:03:59.777Z,2.80
2018-06-21T00:06:28.808Z,2.50
2018-06-21T00:08:57.802Z,2.80
2018-06-21T00:11:26.826Z,2.90
2018-06-21T00:13:55.815Z,2.80
2018-06-21T00:16:24.838Z,2.60
2018-06-21T00:18:54.043Z,3.00
2018-06-21T00:21:23.073Z,2.60
2018-06-21T00:23:52.037Z,2.77
2018-06-21T00:26:21.045Z,3.00
2018-06-21T00:28:50.026Z,2.70
2018-06-21T00:31:19.058Z,3.07
2018-06-21T00:33:48.122Z,3.10
2018-06-21T00:36:17.470Z,2.90
2018-06-21T00:38:46.467Z,2.93
2018-06-21T00:41:15.439Z,2.70
2018-06-21T00:43:44.454Z,2.83
2018-06-21T00:46:13.451Z,3.07
2018-06-21T00:48:42.481Z,3.20
2018-06-21T00:51:11.462Z,3.27
2018-06-21T00:53:40.933Z,2.83
2018-06-21T00:56:19.810Z,2.60
2018-06-21T00:58:49.532Z,3.40
2018-06-21T01:01:19.070Z,2.30
2018-06-21T01:03:48.531Z,3.03
2018-06-21T01:06:17.562Z,3.00
2018-06-21T01:08:46.593Z,2.73
2018-06-21T01:11:15.577Z,3.20
2018-06-21T01:13:44.626Z,2.87
2018-06-21T01:16:13.603Z,3.47
2018-06-21T01:18:43.507Z,3.13
2018-06-21T01:21:12.477Z,3.00
2018-06-21T01:23:41.595Z,3.00
2018-06-21T01:26:10.546Z,2.83
2018-06-21T01:28:39.562Z,2.63
2018-06-21T01:31:08.543Z,2.60
2018-06-21T01:33:37.562Z,2.70
2018-06-21T01:36:06.550Z,3.33
2018-06-21T01:38:35.552Z,2.60
2018-06-21T01:41:04.510Z,3.20
2018-06-21T01:43:33.498Z,3.33
2018-06-21T01:46:02.445Z,2.90
2018-06-21T01:48:31.428Z,3.00
2018-06-21T01:51:00.463Z,2.53
2018-06-21T01:53:29.458Z,2.80
2018-06-21T01:55:58.453Z,2.50
2018-06-21T01:58:27.405Z,2.17
2018-06-21T02:00:56.394Z,2.40
2018-06-21T02:03:25.349Z,2.80
2018-06-21T02:05:54.382Z,3.00
2018-06-21T02:08:23.358Z,2.60
2018-06-21T02:10:52.382Z,3.33
2018-06-21T02:13:21.336Z,2.50
2018-06-21T02:15:50.349Z,2.80
2018-06-21T02:18:19.311Z,2.60
2018-06-21T02:23:28.103Z,2.63
2018-06-21T02:25:57.098Z,2.80
2018-06-21T02:28:26.056Z,2.83
2018-06-21T02:30:55.094Z,3.27
2018-06-21T02:33:24.064Z,2.47
2018-06-21T02:35:53.095Z,2.70
2018-06-21T02:38:22.062Z,3.17
2018-06-21T02:40:51.066Z,2.83
2018-06-21T02:43:20.033Z,2.90
2018-06-21T02:45:49.028Z,2.50
2018-06-21T02:48:17.974Z,2.60
2018-06-21T02:50:47.010Z,2.70
2018-06-21T02:53:15.987Z,2.77
2018-06-21T02:55:45.022Z,2.70
2018-06-21T02:58:13.964Z,3.13
2018-06-21T03:00:42.963Z,2.60
2018-06-21T03:03:11.987Z,3.07
2018-06-21T03:05:40.980Z,2.10
2018-06-21T03:08:09.978Z,2.57
2018-06-21T03:10:38.930Z,2.80
2018-06-21T03:13:07.931Z,2.63
2018-06-21T03:15:36.878Z,2.63
2018-06-21T03:18:05.894Z,2.60
2018-06-21T03:20:34.834Z,2.80
2018-06-21T03:23:03.824Z,2.90
2018-06-21T03:25:32.765Z,2.83
2018-06-21T03:28:01.751Z,2.57
2018-06-21T03:30:30.757Z,3.10
2018-06-21T03:32:59.810Z,2.97
2018-06-21T03:35:28.784Z,3.90
2018-06-21T03:37:57.800Z,2.90
2018-06-21T03:40:26.749Z,2.93
2018-06-21T03:42:55.818Z,3.13
2018-06-21T03:45:24.790Z,2.90
2018-06-21T03:47:53.971Z,2.80
2018-06-21T03:50:23.102Z,2.90
2018-06-21T03:52:52.192Z,3.30
2018-06-21T03:55:21.320Z,2.97
2018-06-21T03:57:50.463Z,2.50
2018-06-21T04:00:19.523Z,2.77
2018-06-21T04:02:48.710Z,3.00
2018-06-21T04:05:17.832Z,2.83
2018-06-21T04:07:46.923Z,3.00
2018-06-21T04:10:16.046Z,2.77
2018-06-21T04:12:45.197Z,3.00
2018-06-21T04:15:14.422Z,2.70
2018-06-21T04:17:43.509Z,3.50
2018-06-21T04:20:12.692Z,3.17
2018-06-21T04:22:41.792Z,3.17
2018-06-21T04:25:10.930Z,3.07
2018-06-21T04:27:39.972Z,3.00
2018-06-21T04:30:09.125Z,3.10
2018-06-21T04:32:38.276Z,3.50
2018-06-21T04:35:07.414Z,3.13
2018-06-21T04:37:36.354Z,2.97
2018-06-21T04:40:05.395Z,2.90
2018-06-21T04:42:34.332Z,2.80
2018-06-21T04:45:03.333Z,3.30
2018-06-21T04:47:32.342Z,2.77
2018-06-21T04:50:01.344Z,2.83
2018-06-21T04:52:30.308Z,2.47
2018-06-21T04:54:59.325Z,3.20
2018-06-21T04:57:28.333Z,2.70
2018-06-21T04:59:57.341Z,2.57
2018-06-21T05:02:26.305Z,2.87
2018-06-21T05:04:55.298Z,3.00
2018-06-21T05:07:24.335Z,2.40
2018-06-21T05:09:53.377Z,2.70
2018-06-21T05:12:23.225Z,2.57
2018-06-21T05:14:53.534Z,3.10
2018-06-21T05:17:22.490Z,2.50
2018-06-21T05:19:51.435Z,3.30
2018-06-21T05:22:20.445Z,3.00
2018-06-21T05:24:49.443Z,2.90
2018-06-21T05:27:18.473Z,3.00
2018-06-21T05:29:47.425Z,2.70
2018-06-21T05:32:16.428Z,2.57
2018-06-21T05:34:45.397Z,2.80
2018-06-21T05:37:14.423Z,2.97
2018-06-21T05:39:43.379Z,2.73
2018-06-21T05:42:12.341Z,2.70
2018-06-21T05:44:41.293Z,2.57
2018-06-21T05:47:10.294Z,2.53
2018-06-21T05:49:39.243Z,2.90
2018-06-21T05:52:08.244Z,2.60
2018-06-21T05:54:37.218Z,2.50
2018-06-21T05:57:06.203Z,3.10
2018-06-21T05:59:35.165Z,2.53
2018-06-21T06:02:04.231Z,3.37
2018-06-21T06:04:33.174Z,2.53
2018-06-21T06:07:02.447Z,2.80
2018-06-21T06:09:31.813Z,2.70
2018-06-21T06:12:01.159Z,2.70
2018-06-21T06:14:30.532Z,2.97
2018-06-21T06:16:59.894Z,2.70
2018-06-21T06:19:29.250Z,2.73
2018-06-21T06:21:58.523Z,3.03
2018-06-21T06:24:27.774Z,2.80
2018-06-21T06:26:57.040Z,2.80
2018-06-21T06:29:26.050Z,2.47
2018-06-21T06:31:55.325Z,3.03
2018-06-21T06:34:24.357Z,3.00
2018-06-21T06:36:53.343Z,2.80
2018-06-21T06:39:22.378Z,2.83
2018-06-21T06:41:52.152Z,2.60
2018-06-21T06:44:21.158Z,3.20
2018-06-21T06:46:50.140Z,3.17
2018-06-21T06:49:19.150Z,2.17
2018-06-21T06:51:48.116Z,2.40
2018-06-21T06:54:17.182Z,2.10
2018-06-21T06:56:46.127Z,2.20
2018-06-21T06:59:15.150Z,2.30
2018-06-21T07:01:44.115Z,2.30
2018-06-21T07:04:13.114Z,1.93
2018-06-21T07:06:42.053Z,1.83
2018-06-21T07:09:11.230Z,2.07
2018-06-21T07:11:40.173Z,2.07
2018-06-21T07:14:09.263Z,1.90
2018-06-21T07:16:38.185Z,1.90
2018-06-21T07:19:07.303Z,2.10
2018-06-21T07:21:38.913Z,1.80
2018-06-21T07:24:08.581Z,2.20
2018-06-21T07:26:38.436Z,2.23
2018-06-21T07:29:08.041Z,1.77
2018-06-21T07:31:37.208Z,1.67
2018-06-21T07:34:06.237Z,1.80
2018-06-21T07:36:35.276Z,1.50
2018-06-21T07:39:04.922Z,1.67
2018-06-21T07:41:33.885Z,1.73
2018-06-21T07:44:02.819Z,1.70
2018-06-21T07:46:32.067Z,1.70
2018-06-21T07:49:01.082Z,1.13
2018-06-21T07:51:30.070Z,1.43
2018-06-21T07:53:59.016Z,1.40
2018-06-21T07:56:28.047Z,1.00
2018-06-21T07:58:56.986Z,1.40
2018-06-21T08:01:25.997Z,1.23
2018-06-21T08:03:54.959Z,1.10
2018-06-21T08:06:23.930Z,1.10
2018-06-21T08:08:52.895Z,1.70
2018-06-21T08:11:21.923Z,1.20
2018-06-21T08:13:50.940Z,1.40
2018-06-21T08:16:19.942Z,1.17
2018-06-21T08:18:48.929Z,1.30
2018-06-21T08:21:17.954Z,1.40
2018-06-21T08:23:46.918Z,1.23
2018-06-21T08:26:15.924Z,1.10
2018-06-21T08:28:44.871Z,0.90
2018-06-21T08:31:13.878Z,1.50
2018-06-21T08:33:43.095Z,1.40
2018-06-21T08:36:12.268Z,1.30
2018-06-21T08:38:41.243Z,1.37
2018-06-21T08:41:10.221Z,1.30
2018-06-21T08:43:39.233Z,1.43
2018-06-21T08:46:08.798Z,1.30
2018-06-21T08:48:38.143Z,1.13
2018-06-21T08:51:07.219Z,1.50
2018-06-21T08:53:36.204Z,1.40
2018-06-21T08:56:05.222Z,1.40
2018-06-21T08:58:34.207Z,1.00
2018-06-21T09:01:03.162Z,1.13
2018-06-21T09:03:32.164Z,1.30
2018-06-21T09:06:01.370Z,1.23
2018-06-21T09:08:30.439Z,1.27
2018-06-21T09:10:59.367Z,1.33
2018-06-21T09:13:36.281Z,1.23
2018-06-21T09:16:06.330Z,1.50
2018-06-21T09:18:35.311Z,1.13
2018-06-21T09:21:04.322Z,1.13
2018-06-21T09:23:33.319Z,1.20
2018-06-21T09:26:02.612Z,1.40
2018-06-21T09:28:31.678Z,1.30
2018-06-21T09:31:00.646Z,1.20
2018-06-21T09:33:29.630Z,1.23
2018-06-21T09:35:58.624Z,1.30
2018-06-21T09:38:32.787Z,1.73
2018-06-21T09:41:06.859Z,1.93
2018-06-21T09:43:50.298Z,1.67
2018-06-21T09:46:14.979Z,1.80
2018-06-21T09:48:49.812Z,2.20
2018-06-21T09:51:18.825Z,2.07
2018-06-21T09:53:47.826Z,2.53
2018-06-21T09:56:16.782Z,2.37
2018-06-21T09:58:45.731Z,2.77
2018-06-21T10:01:14.775Z,3.40
2018-06-21T10:03:43.745Z,2.80
2018-06-21T10:06:12.760Z,2.70
2018-06-21T10:08:41.706Z,2.57
2018-06-21T10:11:10.701Z,3.27
2018-06-21T10:13:39.629Z,2.73
2018-06-21T10:16:08.690Z,3.13
2018-06-21T10:18:37.620Z,3.37
2018-06-21T10:21:06.614Z,3.27
2018-06-21T10:23:35.590Z,3.47
2018-06-21T10:26:04.594Z,3.13
2018-06-21T10:28:33.527Z,2.83
2018-06-21T10:31:02.506Z,3.20
2018-06-21T10:33:31.727Z,2.70
2018-06-21T10:36:00.847Z,3.40
2018-06-21T10:38:29.786Z,3.27
2018-06-21T10:40:58.769Z,3.40
2018-06-21T10:43:27.745Z,3.33
2018-06-21T10:45:56.703Z,3.13
2018-06-21T10:48:25.740Z,2.83
2018-06-21T10:50:54.706Z,2.70
2018-06-21T10:53:23.665Z,2.43
2018-06-21T10:55:52.935Z,2.40
2018-06-21T10:58:21.961Z,3.00
2018-06-21T11:00:50.922Z,2.30
2018-06-21T11:03:20.039Z,1.97
2018-06-21T11:05:48.947Z,2.20
2018-06-21T11:08:17.937Z,2.07
2018-06-21T11:10:46.966Z,2.20
2018-06-21T11:13:15.960Z,2.50
2018-06-21T11:15:44.919Z,2.10
2018-06-21T11:18:13.962Z,2.30
2018-06-21T11:20:43.346Z,1.97
2018-06-21T11:23:12.352Z,2.13
2018-06-21T11:25:41.307Z,2.27
2018-06-21T11:28:10.303Z,2.33
2018-06-21T11:30:39.266Z,3.10
2018-06-21T11:33:08.255Z,2.70
2018-06-21T11:35:37.202Z,3.47
2018-06-21T11:38:06.273Z,2.87
2018-06-21T11:40:35.238Z,3.77
2018-06-21T11:43:04.211Z,3.53
2018-06-21T11:45:33.149Z,3.30
2018-06-21T11:48:02.114Z,3.63
2018-06-21T11:50:31.055Z,3.30
2018-06-21T11:53:00.103Z,3.60
2018-06-21T11:55:29.062Z,3.10
2018-06-21T11:57:58.043Z,2.70
2018-06-21T12:00:27.006Z,3.43
2018-06-21T12:02:55.974Z,3.00
2018-06-21T12:05:24.920Z,2.47
2018-06-21T12:07:53.979Z,2.63
2018-06-21T12:10:22.972Z,2.40
2018-06-21T12:12:51.953Z,1.93
2018-06-21T12:15:20.925Z,3.70
2018-06-21T12:17:49.887Z,2.07
2018-06-21T12:20:18.874Z,2.03
2018-06-21T12:22:47.987Z,1.73
2018-06-21T12:25:17.014Z,1.90
2018-06-21T12:27:46.044Z,2.10
2018-06-21T12:30:15.092Z,1.70
2018-06-21T12:32:44.026Z,1.80
2018-06-21T12:35:13.029Z,1.50
2018-06-21T12:37:41.995Z,1.80
2018-06-21T12:40:11.007Z,1.50
2018-06-21T12:42:39.973Z,1.40
2018-06-21T12:45:09.007Z,1.37
2018-06-21T12:47:38.042Z,1.53
2018-06-21T12:50:07.054Z,1.20
2018-06-21T12:52:36.108Z,1.20
2018-06-21T12:55:05.043Z,0.80
2018-06-21T12:57:33.991Z,1.03
2018-06-21T13:00:02.995Z,0.93
2018-06-21T13:02:31.982Z,1.10
2018-06-21T13:05:00.962Z,1.70
2018-06-21T13:07:29.924Z,1.17
2018-06-21T13:10:09.986Z,1.80
2018-06-21T13:12:51.210Z,1.20
2018-06-21T13:15:20.217Z,1.20
2018-06-21T13:17:49.187Z,1.20
2018-06-21T13:20:18.199Z,1.57
2018-06-21T13:22:47.175Z,1.50
2018-06-21T13:25:16.168Z,1.70
2018-06-21T13:27:45.111Z,1.40
2018-06-21T13:30:14.163Z,1.53
2018-06-21T13:32:43.115Z,1.30
2018-06-21T13:35:12.126Z,1.20
2018-06-21T13:37:41.090Z,1.40
2018-06-21T13:40:10.035Z,1.20
2018-06-21T13:42:39.111Z,1.57
2018-06-21T13:45:08.119Z,1.30
2018-06-21T13:47:37.110Z,1.50
2018-06-21T13:50:06.282Z,1.90
2018-06-21T13:52:35.284Z,1.10
2018-06-21T13:55:04.229Z,1.33
2018-06-21T13:57:33.222Z,1.43
2018-06-21T14:00:02.175Z,1.30
2018-06-21T14:02:31.170Z,1.10
2018-06-21T14:05:00.123Z,1.13
2018-06-21T14:07:29.195Z,1.10
2018-06-21T14:09:58.794Z,0.90
2018-06-21T14:12:28.417Z,0.60
2018-06-21T14:14:57.604Z,1.50
2018-06-21T14:17:26.622Z,1.13
2018-06-21T14:19:55.586Z,0.70
2018-06-21T14:22:24.590Z,1.10
2018-06-21T14:24:53.529Z,1.10
2018-06-21T14:27:22.511Z,1.10
2018-06-21T14:29:51.465Z,1.03
2018-06-21T14:32:20.496Z,0.70
2018-06-21T14:34:49.444Z,0.80
2018-06-21T14:37:18.434Z,0.90
2018-06-21T14:39:47.393Z,1.00
2018-06-21T14:42:16.432Z,0.80
2018-06-21T14:44:45.374Z,0.90
2018-06-21T14:47:14.365Z,1.00
2018-06-21T14:49:43.315Z,0.90
2018-06-21T14:52:12.315Z,1.03
2018-06-21T14:54:41.353Z,0.67
2018-06-21T14:57:10.363Z,0.90
2018-06-21T14:59:39.326Z,1.03
2018-06-21T15:02:08.325Z,0.83
2018-06-21T15:04:37.294Z,1.10
2018-06-21T15:07:06.286Z,0.57
2018-06-21T15:09:35.270Z,0.83
2018-06-21T15:12:04.227Z,0.90
2018-06-21T15:14:33.275Z,0.70
2018-06-21T15:17:02.205Z,0.67
2018-06-21T15:19:31.198Z,0.60
2018-06-21T15:22:00.172Z,0.90
2018-06-21T15:24:29.133Z,1.23
2018-06-21T15:26:58.078Z,1.00
2018-06-21T15:29:27.090Z,0.80
2018-06-21T15:31:56.243Z,0.50
2018-06-21T15:34:25.224Z,0.87
2018-06-21T15:36:54.191Z,0.60
2018-06-21T15:39:24.502Z,0.60
2018-06-21T15:41:53.482Z,0.60
2018-06-21T15:44:22.495Z,0.50
2018-06-21T15:46:51.474Z,1.30
2018-06-21T15:49:20.474Z,0.50
2018-06-21T15:51:49.428Z,0.50
2018-06-21T15:54:18.442Z,0.90
2018-06-21T15:56:47.391Z,1.17
2018-06-21T15:59:16.415Z,0.93
2018-06-21T16:01:45.387Z,0.67
2018-06-21T16:04:14.377Z,0.70
2018-06-21T16:06:43.314Z,0.73
2018-06-21T16:09:12.294Z,0.80
2018-06-21T16:11:41.365Z,1.13
2018-06-21T16:14:10.353Z,0.67
2018-06-21T16:16:39.358Z,0.80
2018-06-21T16:19:08.474Z,1.00
2018-06-21T16:21:37.566Z,0.67
2018-06-21T16:24:06.573Z,0.50
2018-06-21T16:26:35.580Z,0.90
2018-06-21T16:29:04.590Z,0.90
2018-06-21T16:31:33.583Z,0.60
2018-06-21T16:34:02.582Z,0.50
2018-06-21T16:36:31.573Z,0.50
2018-06-21T16:39:00.521Z,0.70
2018-06-21T16:41:29.603Z,1.10
2018-06-21T16:43:58.530Z,0.70
2018-06-21T16:46:27.576Z,0.90
2018-06-21T16:48:56.613Z,0.80
2018-06-21T16:51:25.705Z,0.87
2018-06-21T16:53:54.644Z,0.90
2018-06-21T16:56:23.647Z,0.93
2018-06-21T16:58:52.607Z,1.30
2018-06-21T17:01:21.602Z,0.67
2018-06-21T17:03:50.595Z,0.80
2018-06-21T17:06:19.557Z,0.73
2018-06-21T17:08:48.574Z,1.07
2018-06-21T17:11:17.507Z,1.27
2018-06-21T17:13:46.497Z,0.97
2018-06-21T17:16:15.486Z,1.23
2018-06-21T17:18:44.562Z,0.93
2018-06-21T17:21:13.519Z,0.70
2018-06-21T17:23:42.557Z,1.13
2018-06-21T17:26:11.739Z,0.93
2018-06-21T17:28:40.730Z,1.30
2018-06-21T17:31:09.687Z,0.70
2018-06-21T17:33:38.848Z,0.80
2018-06-21T17:36:07.869Z,1.07
2018-06-21T17:38:36.890Z,0.80
2018-06-21T17:41:05.898Z,0.77
2018-06-21T17:43:34.903Z,0.70
2018-06-21T17:46:03.848Z,1.10
2018-06-21T17:48:32.831Z,0.93
2018-06-21T17:51:01.791Z,0.70
2018-06-21T17:53:30.750Z,0.77
2018-06-21T17:55:59.806Z,1.30
2018-06-21T17:58:28.733Z,1.00
2018-06-21T18:00:57.866Z,1.10
2018-06-21T18:03:26.853Z,0.90
2018-06-21T18:05:55.850Z,1.23
2018-06-21T18:08:24.806Z,0.97
2018-06-21T18:10:53.794Z,0.90
2018-06-21T18:13:22.802Z,1.00
2018-06-21T18:15:51.815Z,1.30
2018-06-21T18:18:20.775Z,0.93
2018-06-21T18:20:49.775Z,0.77
2018-06-21T18:23:18.752Z,1.27
2018-06-21T18:25:47.726Z,1.43
2018-06-21T18:28:16.690Z,2.07
2018-06-21T18:30:45.854Z,0.77
2018-06-21T18:33:14.835Z,0.90
2018-06-21T18:35:43.867Z,1.00
2018-06-21T18:38:12.870Z,1.10
2018-06-21T18:40:41.847Z,1.20
2018-06-21T18:43:10.809Z,0.90
2018-06-21T18:45:39.797Z,1.27
2018-06-21T18:48:08.748Z,0.90
2018-06-21T18:50:37.743Z,1.00
2018-06-21T18:53:06.718Z,1.07
2018-06-21T18:55:35.739Z,1.43
2018-06-21T18:58:04.694Z,0.90
2018-06-21T19:00:33.662Z,0.70
2018-06-21T19:03:02.664Z,0.93
2018-06-21T19:05:31.643Z,0.90
2018-06-21T19:08:05.721Z,1.20
2018-06-21T19:10:39.802Z,0.90
2018-06-21T19:13:08.864Z,1.70
2018-06-21T19:15:37.842Z,1.10
2018-06-21T19:18:06.853Z,0.80
2018-06-21T19:20:35.853Z,0.80
2018-06-21T19:23:04.873Z,1.07
2018-06-21T19:25:33.885Z,1.30
2018-06-21T19:28:02.851Z,0.80
2018-06-21T19:30:31.799Z,0.90
2018-06-21T19:33:00.806Z,1.37
2018-06-21T19:35:29.740Z,0.80
2018-06-21T19:37:58.740Z,0.97
2018-06-21T19:40:27.699Z,0.70
2018-06-21T19:42:56.761Z,1.10
2018-06-21T19:45:26.082Z,1.20
2018-06-21T19:47:55.816Z,1.00
2018-06-21T19:50:25.305Z,1.33
2018-06-21T19:52:54.709Z,1.20
2018-06-21T19:55:23.780Z,1.00
2018-06-21T19:57:52.803Z,0.97
2018-06-21T20:00:21.817Z,1.07
2018-06-21T20:02:55.870Z,1.13
2018-06-21T20:05:24.871Z,0.90
2018-06-21T20:07:53.872Z,0.97
2018-06-21T20:10:22.811Z,0.93
2018-06-21T20:12:51.830Z,1.00
2018-06-21T20:15:20.871Z,0.90
2018-06-21T20:17:49.811Z,0.70
2018-06-21T20:20:23.897Z,0.73
2018-06-21T20:22:52.872Z,0.70
2018-06-21T20:25:21.887Z,0.90
2018-06-21T20:27:50.822Z,0.90
2018-06-21T20:30:19.821Z,1.30
2018-06-21T20:32:48.764Z,1.33
2018-06-21T20:35:17.947Z,0.80
2018-06-21T20:37:46.889Z,0.70
2018-06-21T20:40:15.894Z,0.83
2018-06-21T20:42:44.840Z,1.17
2018-06-21T20:45:13.822Z,0.73
2018-06-21T20:47:42.770Z,1.00
2018-06-21T20:50:11.757Z,1.17
2018-06-21T20:52:40.790Z,1.07
2018-06-21T20:55:09.815Z,0.80
2018-06-21T20:57:38.770Z,1.30
2018-06-21T21:00:07.774Z,0.60
2018-06-21T21:02:36.746Z,1.20
2018-06-21T21:05:11.813Z,0.90
2018-06-21T21:07:40.987Z,0.87
2018-06-21T21:10:11.229Z,0.80
2018-06-21T21:12:40.603Z,0.70
2018-06-21T21:15:10.613Z,0.73
2018-06-21T21:17:39.581Z,1.03
2018-06-21T21:20:09.104Z,0.83
2018-06-21T21:22:39.062Z,0.70
2018-06-21T21:25:08.095Z,1.00
2018-06-21T21:27:37.145Z,0.70
2018-06-21T21:30:07.578Z,1.07
2018-06-21T21:32:36.593Z,0.80
2018-06-21T21:35:05.669Z,0.60
2018-06-21T21:37:34.678Z,0.70
2018-06-21T21:40:05.708Z,0.80
2018-06-21T21:42:36.068Z,0.90
2018-06-21T21:45:05.031Z,0.70
2018-06-21T21:47:34.063Z,1.30
2018-06-21T21:50:03.061Z,0.83
2018-06-21T21:52:32.107Z,1.00
2018-06-21T21:55:01.098Z,0.60
2018-06-21T21:57:30.113Z,0.80
2018-06-21T21:59:59.073Z,0.83
2018-06-21T22:02:28.174Z,0.77
2018-06-21T22:04:57.124Z,1.27
2018-06-21T22:07:26.150Z,1.20
2018-06-21T22:09:55.113Z,0.60
2018-06-21T22:12:24.111Z,0.73
2018-06-21T22:14:53.086Z,0.83
2018-06-21T22:17:22.100Z,1.53
2018-06-21T22:19:51.093Z,1.00
2018-06-21T22:22:20.103Z,0.60
2018-06-21T22:24:49.071Z,0.77
2018-06-21T22:27:18.048Z,0.70
2018-06-21T22:29:46.981Z,1.10
2018-06-21T22:32:15.994Z,1.00
2018-06-21T22:34:44.994Z,1.00
2018-06-21T22:37:14.050Z,1.03
2018-06-21T22:39:43.015Z,1.17
2018-06-21T22:42:12.023Z,1.00
2018-06-21T22:44:41.034Z,0.93
2018-06-21T22:47:10.041Z,1.20
2018-06-21T22:49:38.999Z,1.00
2018-06-21T22:52:08.247Z,0.90
2018-06-21T22:54:37.207Z,0.90
2018-06-21T22:57:06.200Z,1.33
2018-06-21T22:59:35.174Z,1.00
2018-06-21T23:02:04.167Z,1.00
2018-06-21T23:04:33.194Z,0.80
2018-06-21T23:07:02.169Z,1.20
2018-06-21T23:09:31.177Z,0.77
2018-06-21T23:12:00.152Z,0.80
2018-06-21T23:14:29.155Z,1.30
2018-06-21T23:16:58.877Z,1.30
2018-06-21T23:19:30.288Z,0.90
2018-06-21T23:21:59.933Z,1.40
2018-06-21T23:24:28.950Z,0.80
2018-06-21T23:26:57.943Z,1.00
2018-06-21T23:29:26.940Z,1.03
2018-06-21T23:31:55.927Z,1.03
2018-06-21T23:34:24.938Z,1.33
2018-06-21T23:36:53.907Z,1.10
2018-06-21T23:39:22.924Z,1.27
2018-06-21T23:41:51.917Z,1.40
2018-06-21T23:44:20.910Z,1.10
2018-06-21T23:46:49.876Z,1.00
2018-06-21T23:49:18.870Z,1.00
2018-06-21T23:51:47.843Z,1.23
2018-06-21T23:54:16.932Z,0.67
2018-06-21T23:56:45.990Z,1.00
2018-06-21T23:59:15.006Z,1.10
